Moses Lake, WA

9:51 PM PDT en Agosto 19, 2014 (GMT -0700)
Grant County International | Change Station
CLOSE
Current Station
Aeropuerto
Location: Moses Lake,
Altura: 1184 ft
Estaciones meteorológicas cercanas

Alt 1184 ft 47.21 °N, 119.32 °W | Updated 59 minutes ago

Clear
Despejado
82 ° F
Sensación térmica 82 ° F
N
16
Viento Variable Viento desde ONO

Hoy
Alta -- | Baja -- ° F
--% Posibilidad de precipitaciones
Ayer
Alta -- | Baja -- ° F
Precip. -- pul
5:59 AM 8:01 PM
Creciente menguante, 24% visible
Presión 29.63 pul
Visibilidad 10.0 Millas
Nubes Despejado
Punto de rocío 44 ° F
Humedad 26%
Precipitaciones 0.00 pul
Espesor de la nieve No disponible.
UV 0 de una escala de 12
Polen 4.60 de una escala de 12
Calidad del aire No disponible.
Flu Activity No disponible.
METAR KMWH 200352Z 30014KT 10SM CLR 28/07 A2966 RMK AO2 SLP034 T02780067

More Conditions Fewer Conditions

Presión 29.63 pul
Visibilidad 10.0 Millas
Nubes Despejado
Punto de rocío 44 ° F
Humedad 26%
Precipitaciones 0.00 pul
Espesor de la nieve No disponible.
UV 0 de una escala de 12
Polen 4.60 de una escala de 12
Calidad del aire No disponible.
Flu Activity No disponible.
METAR KMWH 200352Z 30014KT 10SM CLR 28/07 A2966 RMK AO2 SLP034 T02780067

More Conditions Fewer Conditions

10-Day Weather Forecast

Almanac

Astronomía

Aug. 19, 2014 Salida Puesta
Hora real 5:59 AM PDT 8:01 PM PDT
Crepúsculo civil 5:26 AM PDT 8:34 PM PDT
Crepúsculo náutico 4:45 AM PDT 9:14 PM PDT
Crepúsculo astronómico 3:59 AM PDT 9:59 PM PDT
Luna 12:48 AM PDT (8/19) 4:09 PM PDT (8/19)
Horas de luz 15h 07m
Horas de luz
14h 01m
Tomorrow will be 3m 6s shorter.
Creciente menguante, 24% of the Moon is Illuminated
Ago 20
Creciente menguante
Ago 25
Nueva
Sep 2
Cuarto creciente
Sep 8
Luna llena
Sep 15
Cuarto menguante

Extremos de ayer

Máximos del estado Bajos del estado

Community

WunderPhotos

Upload Photos

1,745,585 ¡fotos cargadas!

Nearby

Grosos de nieve

Estación Profundido Altura
Trough 0 in 5300 ft
Grouse Camp 0 in 5380 ft
Blewett Pass 0 in 4270 ft
Moses Mountain 0 in 5300 ft
Sasse Ridge 0 in 4200 ft

Actividad de terremotos

Ciudad Distance Mag. Tiempo y dato
No hay informes recientes de la actividad sísmica.
Magnitud mínima muestra es 2,5.

Temperaturas de aguas costeras

Lugar Temperatura
Sin partes meteorológicos de las estaciones

Estaciones meteorológicas cercanas